createdAt,value
2023-04-24T00:00:27.315Z,26.17
2023-04-24T00:02:58.539Z,28.27
2023-04-24T00:05:28.840Z,26.00
2023-04-24T00:07:56.834Z,25.20
2023-04-24T00:10:25.464Z,20.88
2023-04-24T00:12:54.871Z,26.27
2023-04-24T00:15:22.641Z,22.48
2023-04-24T00:17:50.867Z,21.70
2023-04-24T00:20:18.461Z,24.15
2023-04-24T00:22:45.813Z,20.83
2023-04-24T00:25:13.224Z,21.35
2023-04-24T00:27:40.865Z,22.92
2023-04-24T00:30:10.025Z,19.85
2023-04-24T00:32:39.343Z,19.08
2023-04-24T00:35:07.672Z,19.08
2023-04-24T00:37:36.308Z,17.88
2023-04-24T00:40:04.403Z,19.33
2023-04-24T00:42:39.030Z,17.65
2023-04-24T00:45:07.347Z,17.73
2023-04-24T00:47:35.218Z,17.10
2023-04-24T00:50:07.488Z,19.85
2023-04-24T00:52:36.123Z,16.77
2023-04-24T00:55:04.543Z,17.00
2023-04-24T00:57:34.156Z,17.52
2023-04-24T01:00:01.397Z,16.05
2023-04-24T01:04:59.547Z,18.60
2023-04-24T01:07:28.982Z,18.45
2023-04-24T01:09:56.360Z,16.95
2023-04-24T01:12:23.710Z,15.05
2023-04-24T01:14:52.465Z,16.65
2023-04-24T01:19:49.036Z,15.38
2023-04-24T01:22:18.417Z,16.23
2023-04-24T01:24:52.551Z,13.70
2023-04-24T01:27:21.646Z,12.88
2023-04-24T01:29:50.669Z,13.27
2023-04-24T01:32:20.293Z,14.48
2023-04-24T01:34:49.110Z,11.98
2023-04-24T01:37:17.079Z,11.32
2023-04-24T01:39:46.520Z,13.82
2023-04-24T01:42:15.915Z,12.32
2023-04-24T01:44:43.656Z,18.23
2023-04-24T01:47:11.987Z,13.93
2023-04-24T01:49:42.736Z,14.82
2023-04-24T01:52:10.365Z,12.57
2023-04-24T01:54:37.881Z,14.98
2023-04-24T01:57:05.407Z,16.85
2023-04-24T01:59:35.994Z,14.25
2023-04-24T02:02:11.634Z,15.18
2023-04-24T02:04:39.435Z,16.45
2023-04-24T02:07:09.354Z,17.63
2023-04-24T02:09:42.636Z,17.98
2023-04-24T02:12:09.992Z,16.67
2023-04-24T02:14:37.449Z,20.27
2023-04-24T02:17:05.007Z,20.65
2023-04-24T02:19:33.441Z,17.42
2023-04-24T02:22:00.960Z,18.55
2023-04-24T02:24:28.274Z,23.38
2023-04-24T02:26:56.069Z,22.02
2023-04-24T02:29:24.867Z,17.70
2023-04-24T02:31:52.271Z,18.33
2023-04-24T02:34:20.751Z,18.00
2023-04-24T02:36:48.175Z,17.95
2023-04-24T02:39:17.745Z,21.08
2023-04-24T02:41:45.212Z,19.48
2023-04-24T02:44:13.530Z,19.10
2023-04-24T02:46:42.559Z,18.60
2023-04-24T02:49:15.787Z,19.48
2023-04-24T02:51:43.155Z,18.63
2023-04-24T02:54:13.516Z,19.50
2023-04-24T02:56:41.144Z,16.60
2023-04-24T02:59:08.565Z,17.02
2023-04-24T03:01:36.079Z,19.88
2023-04-24T03:04:05.149Z,17.25
2023-04-24T03:06:34.141Z,18.40
2023-04-24T03:09:01.501Z,19.33
2023-04-24T03:11:29.886Z,18.85
2023-04-24T03:13:57.425Z,19.25
2023-04-24T03:16:24.857Z,18.02
2023-04-24T03:18:52.258Z,17.50
2023-04-24T03:21:20.022Z,19.00
2023-04-24T03:23:52.305Z,19.58
2023-04-24T03:26:21.325Z,19.35
2023-04-24T03:28:48.739Z,18.45
2023-04-24T03:31:18.050Z,21.00
2023-04-24T03:33:45.339Z,18.40
2023-04-24T03:36:12.998Z,17.98
2023-04-24T03:38:40.223Z,20.27
2023-04-24T03:41:07.705Z,19.55
2023-04-24T03:43:41.297Z,22.27
2023-04-24T03:46:10.579Z,19.15
2023-04-24T03:48:37.717Z,19.98
2023-04-24T03:51:05.017Z,20.17
2023-04-24T03:53:32.351Z,19.27
2023-04-24T03:55:59.867Z,18.95
2023-04-24T03:58:27.276Z,20.67
2023-04-24T04:00:54.591Z,17.92
2023-04-24T04:03:22.283Z,19.70
2023-04-24T04:05:49.586Z,18.27
2023-04-24T04:08:16.949Z,18.45
2023-04-24T04:10:44.104Z,19.25
2023-04-24T04:13:11.548Z,22.35
2023-04-24T04:15:38.983Z,22.15
2023-04-24T04:18:06.888Z,18.98
2023-04-24T04:20:34.422Z,20.65
2023-04-24T04:23:01.861Z,22.20
2023-04-24T04:25:30.512Z,16.92
2023-04-24T04:27:59.679Z,18.30
2023-04-24T04:30:27.405Z,18.38
2023-04-24T04:32:55.779Z,17.67
2023-04-24T04:35:23.369Z,18.13
2023-04-24T04:37:50.621Z,20.45
2023-04-24T04:40:18.689Z,15.93
2023-04-24T04:42:47.274Z,17.58
2023-04-24T04:45:14.723Z,23.35
2023-04-24T04:47:41.995Z,17.75
2023-04-24T04:50:10.723Z,17.38
2023-04-24T04:52:38.345Z,20.02
2023-04-24T04:55:07.787Z,17.27
2023-04-24T04:57:35.182Z,17.98
2023-04-24T05:00:02.729Z,19.33
2023-04-24T05:02:30.277Z,18.08
2023-04-24T05:04:57.847Z,18.17
2023-04-24T05:07:27.238Z,15.25
2023-04-24T05:09:54.589Z,16.45
2023-04-24T05:12:22.074Z,22.52
2023-04-24T05:14:51.149Z,14.88
2023-04-24T05:17:18.678Z,16.70
2023-04-24T05:19:46.488Z,16.00
2023-04-24T05:22:14.165Z,17.83
2023-04-24T05:24:49.418Z,17.77
2023-04-24T05:27:16.658Z,15.75
2023-04-24T05:29:45.111Z,16.35
2023-04-24T05:32:12.629Z,17.02
2023-04-24T05:34:42.120Z,14.35
2023-04-24T05:37:11.263Z,14.15
2023-04-24T05:39:39.147Z,15.52
2023-04-24T05:42:08.670Z,14.52
2023-04-24T05:44:42.076Z,12.77
2023-04-24T05:47:09.535Z,12.93
2023-04-24T05:49:37.066Z,13.10
2023-04-24T05:52:05.483Z,15.45
2023-04-24T05:54:32.949Z,14.30
2023-04-24T05:57:00.368Z,12.30
2023-04-24T05:59:27.908Z,13.57
2023-04-24T06:01:55.340Z,11.60
2023-04-24T06:04:23.197Z,13.25
2023-04-24T06:06:52.174Z,12.88
2023-04-24T06:09:19.425Z,11.43
2023-04-24T06:11:47.086Z,10.68
2023-04-24T06:14:14.661Z,9.05
2023-04-24T06:16:49.547Z,10.93
2023-04-24T06:19:19.837Z,7.95
2023-04-24T06:21:47.426Z,9.40
2023-04-24T06:24:19.768Z,7.82
2023-04-24T06:26:47.347Z,11.45
2023-04-24T06:29:14.796Z,8.77
2023-04-24T06:31:42.238Z,7.88
2023-04-24T06:34:09.764Z,8.60
2023-04-24T06:36:37.141Z,7.65
2023-04-24T06:39:06.054Z,10.10
2023-04-24T06:44:24.587Z,10.35
2023-04-24T06:46:52.072Z,10.63
2023-04-24T06:49:26.423Z,9.95
2023-04-24T06:51:53.518Z,27.27
2023-04-24T06:54:22.197Z,8.65
2023-04-24T06:56:51.029Z,13.25
2023-04-24T06:59:18.576Z,9.82
2023-04-24T07:01:46.383Z,8.77
2023-04-24T07:04:14.664Z,7.68
2023-04-24T07:06:41.939Z,8.90
2023-04-24T07:09:10.699Z,7.13
2023-04-24T07:11:39.863Z,9.27
2023-04-24T07:14:07.755Z,6.75
2023-04-24T07:16:35.197Z,11.55
2023-04-24T07:19:03.216Z,7.70
2023-04-24T07:21:32.651Z,8.05
2023-04-24T07:24:01.716Z,7.18
2023-04-24T07:26:36.031Z,7.43
2023-04-24T07:29:03.395Z,8.52
2023-04-24T07:31:31.465Z,9.40
2023-04-24T07:33:59.890Z,6.82
2023-04-24T07:36:27.393Z,9.10
2023-04-24T07:38:55.836Z,7.88
2023-04-24T07:41:24.969Z,6.45
2023-04-24T07:43:53.906Z,8.35
2023-04-24T07:46:21.696Z,5.80
2023-04-24T07:48:55.812Z,8.57
2023-04-24T07:51:29.588Z,7.15
2023-04-24T07:53:56.957Z,6.53
2023-04-24T07:56:25.351Z,5.65
2023-04-24T07:58:53.818Z,11.93
2023-04-24T08:01:22.353Z,5.72
2023-04-24T08:03:52.931Z,9.27
2023-04-24T08:06:20.706Z,8.38
2023-04-24T08:08:48.262Z,13.07
2023-04-24T08:11:15.781Z,5.90
2023-04-24T08:13:43.274Z,7.25
2023-04-24T08:16:10.951Z,8.93
2023-04-24T08:18:38.265Z,18.83
2023-04-24T08:21:06.722Z,11.30
2023-04-24T08:23:35.136Z,7.10
2023-04-24T08:26:04.739Z,8.70
2023-04-24T08:28:33.060Z,6.57
2023-04-24T08:43:56.470Z,6.20
2023-04-24T08:46:24.245Z,6.35
2023-04-24T08:48:52.787Z,7.72
2023-04-24T08:51:21.799Z,7.28
2023-04-24T08:53:50.800Z,6.10
2023-04-24T08:56:18.565Z,6.82
2023-04-24T08:58:46.825Z,8.75
2023-04-24T09:01:15.438Z,7.20
2023-04-24T09:03:44.508Z,14.43
2023-04-24T09:06:13.218Z,34.50
2023-04-24T09:08:42.473Z,16.95
2023-04-24T09:11:11.826Z,19.15
2023-04-24T09:13:41.848Z,11.30
2023-04-24T09:16:16.900Z,7.05
2023-04-24T09:18:46.242Z,6.53
2023-04-24T09:21:13.844Z,7.03
2023-04-24T09:23:42.630Z,8.68
2023-04-24T09:26:11.851Z,8.60
2023-04-24T09:28:41.110Z,5.97
2023-04-24T09:31:11.639Z,7.07
2023-04-24T09:33:38.899Z,6.15
2023-04-24T09:36:07.757Z,10.80
2023-04-24T09:38:36.911Z,6.38
2023-04-24T09:41:08.551Z,6.53
2023-04-24T09:43:36.902Z,6.72
2023-04-24T09:46:11.123Z,7.38
2023-04-24T09:48:39.117Z,9.60
2023-04-24T09:51:13.654Z,6.20
2023-04-24T09:53:41.501Z,7.78
2023-04-24T09:56:14.287Z,6.20
2023-04-24T09:58:47.958Z,7.43
2023-04-24T10:01:15.112Z,6.50
2023-04-24T10:03:46.044Z,7.80
2023-04-24T10:06:14.489Z,6.88
2023-04-24T10:08:47.731Z,7.78
2023-04-24T10:11:15.953Z,8.00
2023-04-24T10:13:43.677Z,7.18
2023-04-24T10:16:12.128Z,9.10
2023-04-24T10:18:41.065Z,6.63
2023-04-24T10:21:08.848Z,7.57
2023-04-24T10:23:37.793Z,9.60
2023-04-24T10:26:05.017Z,10.93
2023-04-24T10:28:34.690Z,6.90
2023-04-24T10:31:03.113Z,7.05
2023-04-24T10:33:31.999Z,12.27
2023-04-24T10:36:00.146Z,11.50
2023-04-24T10:38:31.020Z,14.10
2023-04-24T10:41:17.672Z,14.43
2023-04-24T10:43:49.846Z,7.28
2023-04-24T10:46:22.986Z,7.80
2023-04-24T10:48:56.768Z,8.15
2023-04-24T10:53:54.565Z,10.32
2023-04-24T10:56:24.154Z,9.68
2023-04-24T10:58:53.659Z,9.23
2023-04-24T11:01:28.297Z,9.75
2023-04-24T11:04:04.517Z,10.98
2023-04-24T11:06:38.163Z,9.10
2023-04-24T11:09:10.472Z,9.35
2023-04-24T11:11:38.985Z,9.85
2023-04-24T11:14:09.613Z,16.27
2023-04-24T11:16:45.836Z,9.02
2023-04-24T11:19:20.296Z,9.30
2023-04-24T11:21:50.385Z,10.43
2023-04-24T11:24:38.531Z,8.80
2023-04-24T11:27:05.738Z,10.30
2023-04-24T11:30:06.233Z,10.57
2023-04-24T11:32:44.898Z,9.70
2023-04-24T11:35:16.385Z,13.20
2023-04-24T11:40:27.017Z,11.35
2023-04-24T11:42:58.043Z,15.97
2023-04-24T11:45:27.367Z,13.82
2023-04-24T11:47:55.961Z,13.60
2023-04-24T11:50:27.085Z,9.57
2023-04-24T11:52:54.344Z,10.68
2023-04-24T11:55:21.596Z,9.30
2023-04-24T11:57:57.827Z,17.85
2023-04-24T12:00:35.556Z,14.70
2023-04-24T12:03:14.054Z,10.45
2023-04-24T12:05:42.287Z,11.20
2023-04-24T12:08:09.682Z,9.15
2023-04-24T12:10:37.346Z,9.40
2023-04-24T12:13:04.877Z,8.63
2023-04-24T12:15:32.260Z,9.73
2023-04-24T12:18:01.703Z,11.43
2023-04-24T12:20:34.371Z,9.23
2023-04-24T12:23:05.022Z,27.02
2023-04-24T12:25:34.605Z,31.40
2023-04-24T12:28:08.091Z,30.73
2023-04-24T12:30:43.417Z,11.85
2023-04-24T12:33:11.777Z,12.75
2023-04-24T12:35:42.392Z,11.18
2023-04-24T12:38:17.571Z,7.85
2023-04-24T12:40:45.676Z,10.48
2023-04-24T12:43:17.174Z,9.88
2023-04-24T12:45:46.276Z,9.10
2023-04-24T12:48:15.560Z,10.63
2023-04-24T12:50:46.083Z,10.18
2023-04-24T12:53:14.721Z,10.05
2023-04-24T12:55:42.227Z,9.60
2023-04-24T12:58:09.755Z,9.20
2023-04-24T13:00:38.774Z,9.68
2023-04-24T13:03:06.557Z,10.65
2023-04-24T13:05:34.143Z,10.02
2023-04-24T13:08:01.664Z,10.30
2023-04-24T13:10:30.138Z,11.02
2023-04-24T13:13:05.885Z,10.85
2023-04-24T13:15:34.199Z,10.88
2023-04-24T13:18:01.809Z,11.02
2023-04-24T13:20:36.823Z,12.52
2023-04-24T13:23:04.649Z,19.83
2023-04-24T13:25:37.473Z,43.08
2023-04-24T13:28:04.721Z,13.80
2023-04-24T13:30:33.329Z,14.05
2023-04-24T13:33:02.843Z,11.40
2023-04-24T13:35:30.193Z,11.48
2023-04-24T13:37:59.567Z,11.75
2023-04-24T13:40:27.392Z,11.00
2023-04-24T13:42:54.655Z,13.43
2023-04-24T13:45:25.255Z,12.55
2023-04-24T13:47:55.139Z,13.63
2023-04-24T13:50:28.911Z,13.57
2023-04-24T13:53:02.973Z,14.30
2023-04-24T13:55:31.066Z,15.38
2023-04-24T13:58:00.521Z,15.60
2023-04-24T14:00:30.028Z,16.75
2023-04-24T14:02:59.602Z,16.70
2023-04-24T14:05:26.834Z,17.65
2023-04-24T14:07:54.247Z,17.85
2023-04-24T14:10:21.905Z,18.92
2023-04-24T14:12:50.394Z,21.05
2023-04-24T14:15:23.931Z,21.00
2023-04-24T14:17:53.390Z,21.00
2023-04-24T14:20:22.168Z,20.90
2023-04-24T14:22:49.755Z,23.20
2023-04-24T14:25:18.266Z,21.20
2023-04-24T14:27:45.802Z,23.33
2023-04-24T14:30:14.062Z,33.50
2023-04-24T14:32:41.329Z,38.83
2023-04-24T14:35:09.149Z,45.20
2023-04-24T14:37:37.556Z,32.75
2023-04-24T14:42:39.120Z,23.92
2023-04-24T14:45:09.399Z,29.83
2023-04-24T14:47:39.264Z,28.27
2023-04-24T14:50:09.605Z,26.88
2023-04-24T14:52:37.239Z,24.95
2023-04-24T14:55:04.989Z,27.10
2023-04-24T14:57:32.274Z,24.35
2023-04-24T14:59:59.715Z,24.85
2023-04-24T15:02:27.335Z,27.45
2023-04-24T15:04:55.217Z,34.63
2023-04-24T15:07:24.610Z,33.13
2023-04-24T15:09:52.172Z,25.75
2023-04-24T15:12:19.520Z,24.33
2023-04-24T15:14:47.237Z,31.83
2023-04-24T15:17:14.456Z,31.92
2023-04-24T15:19:41.874Z,26.00
2023-04-24T15:22:09.572Z,25.92
2023-04-24T15:24:41.806Z,25.85
2023-04-24T15:27:12.447Z,31.95
2023-04-24T15:29:39.984Z,26.30
2023-04-24T15:32:09.955Z,25.33
2023-04-24T15:34:38.160Z,30.02
2023-04-24T15:37:11.503Z,37.58
2023-04-24T15:39:38.857Z,44.60
2023-04-24T15:42:06.078Z,32.15
2023-04-24T15:44:39.468Z,37.95
2023-04-24T15:47:06.949Z,32.53
2023-04-24T15:49:34.445Z,30.55
2023-04-24T15:52:02.947Z,31.70
2023-04-24T15:54:30.252Z,29.77
2023-04-24T15:56:58.306Z,34.38
2023-04-24T15:59:27.240Z,34.22
2023-04-24T16:01:57.001Z,34.50
2023-04-24T16:04:25.848Z,32.55
2023-04-24T16:06:54.615Z,33.75
2023-04-24T16:09:22.214Z,33.83
2023-04-24T16:11:49.956Z,32.60
2023-04-24T16:14:17.284Z,33.35
2023-04-24T16:16:46.678Z,32.00
2023-04-24T16:19:14.228Z,32.70
2023-04-24T16:21:42.764Z,34.33
2023-04-24T16:24:09.972Z,33.38
2023-04-24T16:26:38.747Z,33.67
2023-04-24T16:29:07.461Z,34.30
2023-04-24T16:31:37.335Z,35.85
2023-04-24T16:34:05.298Z,40.20
2023-04-24T16:36:33.182Z,34.78
2023-04-24T16:39:01.795Z,39.83
2023-04-24T16:41:29.298Z,33.35
2023-04-24T16:43:57.134Z,29.98
2023-04-24T16:46:24.398Z,32.85
2023-04-24T16:48:52.102Z,31.80
2023-04-24T16:51:20.127Z,33.42
2023-04-24T16:53:47.801Z,31.15
2023-04-24T16:56:16.575Z,37.30
2023-04-24T16:58:46.067Z,31.40
2023-04-24T17:01:13.640Z,36.45
2023-04-24T17:03:41.906Z,13.32
2023-04-24T17:06:12.190Z,12.38
2023-04-24T17:08:41.134Z,9.43
2023-04-24T17:11:09.051Z,8.90
2023-04-24T17:13:38.238Z,11.65
2023-04-24T17:16:07.112Z,15.45
2023-04-24T17:18:35.180Z,23.10
2023-04-24T17:21:02.649Z,108.28
2023-04-24T17:23:36.295Z,25.35
2023-04-24T17:26:03.807Z,28.52
2023-04-24T17:28:33.422Z,31.67
2023-04-24T17:31:01.630Z,8.57
2023-04-24T17:33:31.297Z,41.55
2023-04-24T17:36:04.727Z,14.32
2023-04-24T17:38:41.224Z,14.68
2023-04-24T17:41:11.178Z,13.18
2023-04-24T17:43:38.831Z,9.82
2023-04-24T17:46:08.779Z,10.52
2023-04-24T17:48:37.047Z,30.92
2023-04-24T17:51:05.450Z,21.20
2023-04-24T17:53:33.087Z,11.98
2023-04-24T17:56:04.211Z,11.90
2023-04-24T17:58:35.286Z,12.18
2023-04-24T18:01:03.282Z,13.00
2023-04-24T18:03:31.740Z,8.07
2023-04-24T18:06:00.010Z,25.33
2023-04-24T18:08:28.907Z,16.95
2023-04-24T18:10:57.221Z,22.30
2023-04-24T18:13:27.474Z,27.42
2023-04-24T18:15:56.360Z,28.95
2023-04-24T18:18:24.295Z,19.30
2023-04-24T18:20:52.005Z,29.77
2023-04-24T18:23:21.389Z,91.75
2023-04-24T18:25:49.437Z,9.05
2023-04-24T18:28:24.063Z,29.08
2023-04-24T18:30:53.021Z,8.35
2023-04-24T18:33:20.743Z,8.05
2023-04-24T18:35:49.867Z,7.00
2023-04-24T18:38:17.982Z,7.00
2023-04-24T18:40:46.708Z,6.78
2023-04-24T18:43:16.000Z,6.50
2023-04-24T18:45:43.711Z,7.63
2023-04-24T18:48:11.431Z,15.07
2023-04-24T18:50:42.217Z,14.32
2023-04-24T18:53:10.660Z,11.25
2023-04-24T18:55:38.966Z,14.18
2023-04-24T18:58:08.204Z,13.38
2023-04-24T19:00:38.937Z,11.40
2023-04-24T19:03:09.445Z,10.48
2023-04-24T19:05:37.870Z,10.85
2023-04-24T19:08:07.213Z,13.38
2023-04-24T19:10:36.539Z,16.17
2023-04-24T19:13:04.129Z,21.20
2023-04-24T19:15:34.679Z,16.50
2023-04-24T19:18:02.938Z,11.68
2023-04-24T19:20:31.036Z,12.43
2023-04-24T19:22:59.338Z,17.27
2023-04-24T19:25:28.908Z,25.83
2023-04-24T19:27:58.509Z,18.95
2023-04-24T19:30:27.877Z,17.83
2023-04-24T19:32:56.522Z,15.07
2023-04-24T19:35:24.765Z,12.32
2023-04-24T19:37:53.758Z,12.25
2023-04-24T19:40:21.367Z,22.88
2023-04-24T19:42:49.316Z,28.58
2023-04-24T19:45:17.574Z,62.22
2023-04-24T19:47:53.104Z,20.80
2023-04-24T19:50:21.237Z,16.70
2023-04-24T19:52:50.231Z,21.92
2023-04-24T19:55:18.536Z,58.75
2023-04-24T19:57:46.660Z,46.95
2023-04-24T20:00:14.772Z,28.08
2023-04-24T20:02:44.809Z,45.80
2023-04-24T20:05:13.959Z,53.58
2023-04-24T20:07:41.770Z,52.72
2023-04-24T20:10:10.401Z,40.45
2023-04-24T20:12:40.559Z,11.30
2023-04-24T20:15:09.432Z,12.25
2023-04-24T20:17:39.169Z,13.23
2023-04-24T20:20:08.704Z,24.33
2023-04-24T20:22:41.176Z,13.40
2023-04-24T20:25:10.313Z,29.45
2023-04-24T20:27:41.304Z,24.23
2023-04-24T20:30:17.054Z,19.77
2023-04-24T20:32:45.043Z,19.70
2023-04-24T20:35:15.398Z,13.50
2023-04-24T20:37:43.207Z,14.75
2023-04-24T20:40:11.296Z,17.55
2023-04-24T20:42:38.688Z,25.25
2023-04-24T20:45:07.150Z,21.13
2023-04-24T20:47:35.164Z,15.50
2023-04-24T20:50:04.343Z,14.13
2023-04-24T20:52:33.207Z,14.82
2023-04-24T20:55:00.896Z,16.85
2023-04-24T20:57:28.138Z,20.60
2023-04-24T20:59:55.653Z,20.58
2023-04-24T21:02:23.100Z,23.95
2023-04-24T21:04:57.651Z,20.20
2023-04-24T21:07:25.197Z,21.00
2023-04-24T21:09:53.625Z,28.88
2023-04-24T21:12:22.069Z,41.90
2023-04-24T21:14:51.475Z,41.92
2023-04-24T21:17:19.594Z,25.20
2023-04-24T21:19:49.092Z,17.13
2023-04-24T21:22:16.579Z,20.38
2023-04-24T21:24:47.408Z,18.20
2023-04-24T21:27:14.596Z,19.20
2023-04-24T21:29:42.759Z,18.00
2023-04-24T21:32:10.181Z,18.98
2023-04-24T21:34:38.626Z,16.42
2023-04-24T21:37:15.683Z,17.40
2023-04-24T21:39:43.225Z,21.65
2023-04-24T21:42:10.401Z,18.27
2023-04-24T21:44:37.599Z,23.15
2023-04-24T21:47:05.198Z,19.13
2023-04-24T21:49:32.508Z,20.13
2023-04-24T21:52:00.012Z,21.88
2023-04-24T21:54:33.581Z,20.98
2023-04-24T21:57:02.586Z,19.23
2023-04-24T21:59:30.402Z,21.02
2023-04-24T22:01:58.381Z,20.05
2023-04-24T22:04:26.985Z,28.08
2023-04-24T22:06:54.686Z,16.05
2023-04-24T22:09:22.098Z,15.10
2023-04-24T22:11:49.386Z,14.10
2023-04-24T22:14:17.390Z,13.25
2023-04-24T22:16:46.429Z,14.70
2023-04-24T22:19:14.887Z,12.82
2023-04-24T22:21:42.890Z,13.13
2023-04-24T22:24:10.476Z,16.60
2023-04-24T22:26:40.107Z,21.38
2023-04-24T22:29:08.371Z,29.10
2023-04-24T22:31:36.356Z,18.85
2023-04-24T22:34:03.864Z,16.05
2023-04-24T22:36:34.287Z,17.90
2023-04-24T22:39:02.124Z,14.18
2023-04-24T22:41:32.105Z,12.20
2023-04-24T22:43:59.488Z,11.05
2023-04-24T22:46:26.800Z,8.70
2023-04-24T22:48:54.483Z,8.07
2023-04-24T22:51:21.578Z,7.07
2023-04-24T22:53:51.377Z,6.93
2023-04-24T22:56:19.115Z,6.43
2023-04-24T22:58:48.636Z,7.97
2023-04-24T23:01:18.088Z,7.90
2023-04-24T23:03:45.585Z,7.53
2023-04-24T23:06:19.238Z,7.63
2023-04-24T23:11:14.585Z,8.45
2023-04-24T23:13:43.682Z,7.15
2023-04-24T23:16:11.156Z,6.75
2023-04-24T23:18:38.609Z,9.13
2023-04-24T23:21:06.105Z,6.97
2023-04-24T23:23:33.548Z,6.57
2023-04-24T23:26:01.172Z,7.05
2023-04-24T23:28:30.641Z,7.10
2023-04-24T23:30:57.857Z,5.53
2023-04-24T23:33:25.417Z,6.25
2023-04-24T23:35:53.853Z,5.40
2023-04-24T23:38:21.309Z,5.55
2023-04-24T23:40:50.849Z,4.65
2023-04-24T23:43:18.546Z,5.07
2023-04-24T23:45:45.907Z,4.70
2023-04-24T23:48:13.236Z,5.22
2023-04-24T23:50:40.896Z,4.30
2023-04-24T23:53:08.179Z,6.07
2023-04-24T23:55:41.707Z,4.60
2023-04-24T23:58:09.674Z,5.53
